createdAt,value
2022-10-08T03:02:36.888Z,11.40
2022-10-08T03:05:09.843Z,11.40
2022-10-08T03:07:36.974Z,11.40
2022-10-08T03:10:06.295Z,11.40
2022-10-08T03:12:34.353Z,11.40
2022-10-08T03:15:01.623Z,11.30
2022-10-08T03:17:34.538Z,11.30
2022-10-08T03:20:03.233Z,11.30
2022-10-08T03:22:31.617Z,11.20
2022-10-08T03:24:59.020Z,11.20
2022-10-08T03:27:26.330Z,11.20
2022-10-08T03:29:57.165Z,11.10
2022-10-08T03:32:24.978Z,11.10
2022-10-08T03:34:52.623Z,11.00
2022-10-08T03:37:20.665Z,10.90
2022-10-08T03:39:47.801Z,10.90
2022-10-08T03:42:15.114Z,10.90
2022-10-08T03:44:42.231Z,10.90
2022-10-08T03:47:09.379Z,10.90
2022-10-08T03:49:36.588Z,10.90
2022-10-08T03:52:03.865Z,10.80
2022-10-08T03:54:31.065Z,10.90
2022-10-08T03:56:58.250Z,10.80
2022-10-08T03:59:25.384Z,10.90
2022-10-08T04:01:52.629Z,10.90
2022-10-08T04:04:24.643Z,10.90
2022-10-08T04:06:52.912Z,10.90
2022-10-08T04:09:20.062Z,11.00
2022-10-08T04:11:47.247Z,11.00
2022-10-08T04:14:14.364Z,11.10
2022-10-08T04:16:41.470Z,11.10
2022-10-08T04:19:11.495Z,11.20
2022-10-08T04:21:38.811Z,11.20
2022-10-08T04:24:06.251Z,11.20
2022-10-08T04:26:33.421Z,11.30
2022-10-08T04:29:00.520Z,11.30
2022-10-08T04:31:27.797Z,11.40
2022-10-08T04:33:54.995Z,11.40
2022-10-08T04:36:24.577Z,11.50
2022-10-08T04:38:51.892Z,11.60
2022-10-08T04:41:22.406Z,11.60
2022-10-08T04:43:50.098Z,11.70
2022-10-08T04:46:19.698Z,11.70
2022-10-08T04:48:52.125Z,11.70
2022-10-08T04:51:20.312Z,11.80
2022-10-08T04:53:47.589Z,11.80
2022-10-08T04:56:18.937Z,11.80
2022-10-08T04:58:46.994Z,11.80
2022-10-08T05:01:16.678Z,11.80
2022-10-08T05:03:46.626Z,11.70
2022-10-08T05:06:15.590Z,11.80
2022-10-08T05:08:43.645Z,11.80
2022-10-08T05:11:11.583Z,11.90
2022-10-08T05:13:39.021Z,11.90
2022-10-08T05:16:08.809Z,11.90
2022-10-08T05:18:37.270Z,12.00
2022-10-08T05:21:10.800Z,12.00
2022-10-08T05:23:38.968Z,12.00
2022-10-08T05:26:17.654Z,12.00
2022-10-08T05:28:49.234Z,12.00
2022-10-08T05:31:17.716Z,12.10
2022-10-08T05:33:45.153Z,12.10
2022-10-08T05:36:21.218Z,12.20
2022-10-08T05:38:48.864Z,12.20
2022-10-08T05:41:22.428Z,12.10
2022-10-08T05:43:50.141Z,11.90
2022-10-08T05:46:18.170Z,12.10
2022-10-08T05:48:45.830Z,12.20
2022-10-08T05:51:15.380Z,12.20
2022-10-08T05:53:47.046Z,12.30
2022-10-08T05:56:16.932Z,12.40
2022-10-08T05:58:44.734Z,12.40
2022-10-08T06:01:17.629Z,12.50
2022-10-08T06:03:49.317Z,12.50
2022-10-08T06:06:16.761Z,12.60
2022-10-08T06:08:43.972Z,12.70
2022-10-08T06:11:11.233Z,12.70
2022-10-08T06:13:38.710Z,12.80
2022-10-08T06:16:10.298Z,12.80
2022-10-08T06:18:42.119Z,12.70
2022-10-08T06:21:11.962Z,12.80
2022-10-08T06:23:44.891Z,12.80
2022-10-08T06:26:12.055Z,12.90
2022-10-08T06:28:40.215Z,12.90
2022-10-08T06:31:08.477Z,13.00
2022-10-08T06:33:36.246Z,13.00
2022-10-08T06:36:13.540Z,13.10
2022-10-08T06:38:40.714Z,13.20
2022-10-08T06:41:07.936Z,13.30
2022-10-08T06:43:35.589Z,13.30
2022-10-08T06:46:06.318Z,13.30
2022-10-08T06:48:34.056Z,13.40
2022-10-08T06:51:03.847Z,13.50
2022-10-08T06:53:31.182Z,13.50
2022-10-08T06:56:04.441Z,13.60
2022-10-08T06:58:32.240Z,13.70
2022-10-08T07:01:03.629Z,13.80
2022-10-08T07:03:31.146Z,13.90
2022-10-08T07:06:08.128Z,13.90
2022-10-08T07:08:36.149Z,13.90
2022-10-08T07:11:14.505Z,14.00
2022-10-08T07:13:42.818Z,14.00
2022-10-08T07:16:21.383Z,14.10
2022-10-08T07:18:50.811Z,14.10
2022-10-08T07:21:20.856Z,14.20
2022-10-08T07:23:48.582Z,14.30
2022-10-08T07:26:21.107Z,14.30
2022-10-08T07:29:06.288Z,14.40
2022-10-08T07:31:36.610Z,14.20
2022-10-08T07:34:06.212Z,14.20
2022-10-08T07:36:33.855Z,14.20
2022-10-08T07:39:04.718Z,14.20
2022-10-08T07:41:32.324Z,14.20
2022-10-08T07:44:01.226Z,14.20
2022-10-08T07:46:30.029Z,14.20
2022-10-08T07:48:59.163Z,14.30
2022-10-08T07:51:28.212Z,14.50
2022-10-08T07:53:58.966Z,14.60
2022-10-08T07:56:32.079Z,14.70
2022-10-08T07:59:00.769Z,14.80
2022-10-08T08:01:29.956Z,14.80
2022-10-08T08:04:06.554Z,15.00
2022-10-08T08:06:38.439Z,14.90
2022-10-08T08:09:05.621Z,14.90
2022-10-08T08:11:32.737Z,15.00
2022-10-08T08:13:59.936Z,15.10
2022-10-08T08:16:29.297Z,15.20
2022-10-08T08:18:58.981Z,15.30
2022-10-08T08:21:28.971Z,15.40
2022-10-08T08:23:58.046Z,15.60
2022-10-08T08:26:34.260Z,15.60
2022-10-08T08:29:04.577Z,15.70
2022-10-08T08:31:39.003Z,15.60
2022-10-08T08:34:09.323Z,15.70
2022-10-08T08:36:39.918Z,15.90
2022-10-08T08:39:08.839Z,16.00
2022-10-08T08:42:04.997Z,15.80
2022-10-08T08:44:50.002Z,15.90
2022-10-08T08:47:25.791Z,15.80
2022-10-08T08:50:24.488Z,16.00
2022-10-08T08:52:51.940Z,16.10
2022-10-08T08:55:25.489Z,16.20
2022-10-08T08:57:52.552Z,16.20
2022-10-08T09:00:23.104Z,16.30
2022-10-08T09:03:06.490Z,16.40
2022-10-08T09:05:39.402Z,16.50
2022-10-08T09:08:29.567Z,16.50
2022-10-08T09:11:02.698Z,16.60
2022-10-08T09:14:05.219Z,16.60
2022-10-08T09:16:34.188Z,16.60
2022-10-08T09:19:01.701Z,16.70
2022-10-08T09:21:33.823Z,16.70
2022-10-08T09:24:01.597Z,16.80
2022-10-08T09:26:35.067Z,16.90
2022-10-08T09:29:04.680Z,17.10
2022-10-08T09:31:48.759Z,17.20
2022-10-08T09:34:17.673Z,17.30
2022-10-08T09:37:03.049Z,17.30
2022-10-08T09:39:38.963Z,17.50
2022-10-08T09:42:14.126Z,17.50
2022-10-08T09:44:48.529Z,17.50
2022-10-08T09:47:20.994Z,17.60
2022-10-08T09:50:06.574Z,17.50
2022-10-08T09:52:36.681Z,17.50
2022-10-08T09:55:16.842Z,17.50
2022-10-08T09:57:48.028Z,17.60
2022-10-08T10:00:35.486Z,17.80
2022-10-08T10:03:05.641Z,18.00
2022-10-08T10:05:35.438Z,18.00
2022-10-08T10:08:03.537Z,17.90
2022-10-08T10:10:45.105Z,18.00
2022-10-08T10:13:20.047Z,18.00
2022-10-08T10:15:49.827Z,18.00
2022-10-08T10:18:25.888Z,18.10
2022-10-08T10:20:58.632Z,18.20
2022-10-08T10:23:37.303Z,18.30
2022-10-08T10:26:21.803Z,18.40
2022-10-08T10:28:52.623Z,18.20
2022-10-08T10:31:31.737Z,18.30
2022-10-08T10:34:05.016Z,18.40
2022-10-08T10:36:36.893Z,18.30
2022-10-08T10:39:25.280Z,18.30
2022-10-08T10:42:19.026Z,18.40
2022-10-08T10:44:56.538Z,18.30
2022-10-08T10:47:30.962Z,18.40
2022-10-08T10:50:01.152Z,18.50
2022-10-08T10:52:49.559Z,18.50
2022-10-08T10:55:35.628Z,18.60
2022-10-08T10:58:02.859Z,18.50
2022-10-08T11:00:43.601Z,18.40
2022-10-08T11:03:29.263Z,18.40
2022-10-08T11:06:21.255Z,18.20
2022-10-08T11:09:18.787Z,18.10
2022-10-08T11:11:52.251Z,18.10
2022-10-08T11:14:44.583Z,18.00
2022-10-08T11:17:56.057Z,18.00
2022-10-08T11:20:26.218Z,17.80
2022-10-08T11:23:25.174Z,17.70
2022-10-08T11:26:21.427Z,17.70
2022-10-08T11:28:56.257Z,17.70
2022-10-08T11:31:43.325Z,17.80
2022-10-08T11:34:39.163Z,17.80
2022-10-08T11:37:23.654Z,17.80
2022-10-08T11:40:04.433Z,17.80
2022-10-08T11:42:40.726Z,17.90
2022-10-08T11:45:29.721Z,18.00
2022-10-08T11:47:59.686Z,18.10
2022-10-08T11:50:36.866Z,18.10
2022-10-08T11:53:09.566Z,18.20
2022-10-08T11:55:37.983Z,18.30
2022-10-08T11:58:15.416Z,18.20
2022-10-08T12:00:48.157Z,18.20
2022-10-08T12:03:24.061Z,18.30
2022-10-08T12:05:54.320Z,18.30
2022-10-08T12:08:53.128Z,18.30
2022-10-08T12:11:32.388Z,18.40
2022-10-08T12:14:11.794Z,18.50
2022-10-08T12:16:47.667Z,18.60
2022-10-08T12:19:35.823Z,18.40
2022-10-08T12:22:15.056Z,18.30
2022-10-08T12:24:50.000Z,18.40
2022-10-08T12:27:17.941Z,18.60
2022-10-08T12:30:05.376Z,18.70
2022-10-08T12:32:41.307Z,18.80
2022-10-08T12:35:33.925Z,18.80
2022-10-08T12:38:01.006Z,18.60
2022-10-08T12:40:45.289Z,18.70
2022-10-08T12:43:27.479Z,18.90
2022-10-08T12:46:21.016Z,19.00
2022-10-08T12:48:59.139Z,19.00
2022-10-08T12:51:50.332Z,19.10
2022-10-08T12:54:20.956Z,19.30
2022-10-08T12:56:50.348Z,19.20
2022-10-08T12:59:19.371Z,19.30
2022-10-08T13:01:48.796Z,19.30
2022-10-08T13:04:29.224Z,19.30
2022-10-08T13:06:56.563Z,19.10
2022-10-08T13:09:26.525Z,19.00
2022-10-08T13:11:59.411Z,18.80
2022-10-08T13:14:34.168Z,18.80
2022-10-08T13:17:02.010Z,18.80
2022-10-08T13:19:31.962Z,18.80
2022-10-08T13:22:06.138Z,18.80
2022-10-08T13:24:41.899Z,18.60
2022-10-08T13:27:26.756Z,18.60
2022-10-08T13:29:59.247Z,18.60
2022-10-08T13:32:39.492Z,18.70
2022-10-08T13:35:19.294Z,18.60
2022-10-08T13:37:52.444Z,18.70
2022-10-08T13:40:22.080Z,18.80
2022-10-08T13:42:58.866Z,18.90
2022-10-08T13:45:29.118Z,19.10
2022-10-08T13:47:57.304Z,19.10
2022-10-08T13:50:24.456Z,19.20
2022-10-08T13:52:54.698Z,19.20
2022-10-08T13:55:32.197Z,19.20
2022-10-08T13:58:02.077Z,19.10
2022-10-08T14:00:31.304Z,19.10
2022-10-08T14:02:59.122Z,19.00
2022-10-08T14:05:28.650Z,19.00
2022-10-08T14:08:00.623Z,18.80
2022-10-08T14:10:27.884Z,18.70
2022-10-08T14:12:54.990Z,18.60
2022-10-08T14:15:22.488Z,18.40
2022-10-08T14:17:50.603Z,18.20
2022-10-08T14:20:17.865Z,17.80
2022-10-08T14:22:45.287Z,17.50
2022-10-08T14:25:17.297Z,17.30
2022-10-08T14:27:45.520Z,17.10
2022-10-08T14:30:14.458Z,17.00
2022-10-08T14:32:42.174Z,16.90
2022-10-08T14:35:10.819Z,16.80
2022-10-08T14:37:38.340Z,16.90
2022-10-08T14:40:07.387Z,16.70
2022-10-08T14:42:34.745Z,16.30
2022-10-08T14:45:02.034Z,16.00
2022-10-08T14:47:29.176Z,15.80
2022-10-08T14:49:56.312Z,15.70
2022-10-08T14:52:23.403Z,15.60
2022-10-08T14:54:50.573Z,15.50
2022-10-08T14:57:17.737Z,15.50
2022-10-08T14:59:44.868Z,15.40
2022-10-08T15:02:12.523Z,15.40
2022-10-08T15:04:39.768Z,15.30
2022-10-08T15:07:07.167Z,15.30
2022-10-08T15:09:37.091Z,15.20
2022-10-08T15:12:04.206Z,15.10
2022-10-08T15:14:35.679Z,15.10
2022-10-08T15:17:05.356Z,15.10
2022-10-08T15:19:32.622Z,15.00
2022-10-08T15:21:59.819Z,15.10
2022-10-08T15:24:27.137Z,15.20
2022-10-08T15:26:54.554Z,15.20
2022-10-08T15:29:21.732Z,15.10
2022-10-08T15:31:51.909Z,15.00
2022-10-08T15:34:20.128Z,14.90
2022-10-08T15:36:47.783Z,14.60
2022-10-08T15:39:19.051Z,14.40
2022-10-08T15:41:49.923Z,14.20
2022-10-08T15:44:31.033Z,14.00
2022-10-08T15:47:05.523Z,13.90
2022-10-08T15:49:37.070Z,13.80
2022-10-08T15:52:06.023Z,13.70
2022-10-08T15:54:37.190Z,13.70
2022-10-08T15:57:04.695Z,13.70
2022-10-08T15:59:32.772Z,13.80
2022-10-08T16:02:00.293Z,13.90
2022-10-08T16:04:27.607Z,14.00
2022-10-08T16:06:55.431Z,14.00
2022-10-08T16:09:23.394Z,14.10
2022-10-08T16:11:51.705Z,14.10
2022-10-08T16:14:24.010Z,14.10
2022-10-08T16:16:52.072Z,14.10
2022-10-08T16:19:21.262Z,14.20
2022-10-08T16:21:50.176Z,14.30
2022-10-08T16:24:17.552Z,14.30
2022-10-08T16:26:45.355Z,14.30
2022-10-08T16:29:13.877Z,14.20
2022-10-08T16:31:42.659Z,14.10
2022-10-08T16:34:23.523Z,13.90
2022-10-08T16:36:51.351Z,13.80
2022-10-08T16:39:21.021Z,13.80
2022-10-08T16:41:49.243Z,13.80
2022-10-08T16:44:18.697Z,13.90
2022-10-08T16:46:50.243Z,13.90
2022-10-08T16:49:25.308Z,13.90
2022-10-08T16:52:05.116Z,13.90
2022-10-08T16:54:32.832Z,13.90
2022-10-08T16:57:00.373Z,13.80
2022-10-08T16:59:28.723Z,13.90
2022-10-08T17:01:58.183Z,14.00
2022-10-08T17:04:27.790Z,14.00
2022-10-08T17:06:55.758Z,14.00
2022-10-08T17:09:23.677Z,14.00
2022-10-08T17:11:51.104Z,14.10
2022-10-08T17:14:18.295Z,14.10
2022-10-08T17:16:45.752Z,14.10
2022-10-08T17:19:13.670Z,14.00
2022-10-08T17:21:41.286Z,14.10
2022-10-08T17:24:10.684Z,13.90
2022-10-08T17:26:38.179Z,13.80
2022-10-08T17:29:07.500Z,13.70
2022-10-08T17:31:35.327Z,13.80
2022-10-08T17:34:04.096Z,13.70
2022-10-08T17:36:34.082Z,13.70
2022-10-08T17:39:03.340Z,13.70
2022-10-08T17:41:35.621Z,13.80
2022-10-08T17:44:05.761Z,13.80
2022-10-08T17:46:35.867Z,13.90
2022-10-08T17:49:03.341Z,13.80
2022-10-08T17:51:31.070Z,13.70
2022-10-08T17:54:04.112Z,13.80
2022-10-08T17:56:32.053Z,13.80
2022-10-08T17:58:59.944Z,13.90
2022-10-08T18:01:32.188Z,14.00
2022-10-08T18:04:02.082Z,14.10
2022-10-08T18:06:31.193Z,14.10
2022-10-08T18:09:07.388Z,14.00
2022-10-08T18:11:37.226Z,14.00
2022-10-08T18:14:05.575Z,14.10
2022-10-08T18:16:33.548Z,14.10
2022-10-08T18:19:04.904Z,14.10
2022-10-08T18:21:34.911Z,14.20
2022-10-08T18:24:02.109Z,14.20
2022-10-08T18:26:34.840Z,14.20
2022-10-08T18:29:06.058Z,14.20
2022-10-08T18:31:33.806Z,14.10
2022-10-08T18:34:04.385Z,14.20
2022-10-08T18:36:34.271Z,14.20
2022-10-08T18:39:05.626Z,14.20
2022-10-08T18:41:36.125Z,14.20
2022-10-08T18:44:05.867Z,14.30
2022-10-08T18:46:37.247Z,14.30
2022-10-08T18:49:05.746Z,14.20
2022-10-08T18:51:34.030Z,14.20
2022-10-08T18:54:04.190Z,14.20
2022-10-08T18:56:35.325Z,14.20
2022-10-08T18:59:05.533Z,14.20
2022-10-08T19:01:38.666Z,14.20
2022-10-08T19:04:13.597Z,14.20
2022-10-08T19:06:43.008Z,14.20
2022-10-08T19:09:10.413Z,14.20
2022-10-08T19:11:44.406Z,14.20
2022-10-08T19:14:15.068Z,14.10
2022-10-08T19:16:42.630Z,14.10
2022-10-08T19:19:23.662Z,14.00
2022-10-08T19:21:51.948Z,14.00
2022-10-08T19:24:21.635Z,14.00
2022-10-08T19:26:50.036Z,14.10
2022-10-08T19:29:20.426Z,14.10
2022-10-08T19:31:48.525Z,14.10
2022-10-08T19:34:19.433Z,14.10
2022-10-08T19:36:46.760Z,14.00
2022-10-08T19:39:17.412Z,14.00
2022-10-08T19:41:45.400Z,14.00
2022-10-08T19:44:12.903Z,14.00
2022-10-08T19:46:40.314Z,13.90
2022-10-08T19:49:08.282Z,13.90
2022-10-08T19:51:36.426Z,14.00
2022-10-08T19:54:04.208Z,14.00
2022-10-08T19:56:31.549Z,14.00
2022-10-08T19:58:58.817Z,13.90
2022-10-08T20:01:28.881Z,13.90
2022-10-08T20:03:57.771Z,13.90
2022-10-08T20:06:28.627Z,14.00
2022-10-08T20:08:58.613Z,13.90
2022-10-08T20:11:26.888Z,13.90
2022-10-08T20:13:54.681Z,13.90
2022-10-08T20:16:27.790Z,13.80
2022-10-08T20:19:00.215Z,13.80
2022-10-08T20:21:29.414Z,13.80
2022-10-08T20:23:56.541Z,13.90
2022-10-08T20:26:28.861Z,13.80
2022-10-08T20:29:19.783Z,13.90
2022-10-08T20:31:54.834Z,13.90
2022-10-08T20:34:31.321Z,13.90
2022-10-08T20:37:01.416Z,13.80
2022-10-08T20:39:29.366Z,13.80
2022-10-08T20:41:56.622Z,13.70
2022-10-08T20:44:23.839Z,13.60
2022-10-08T20:46:52.077Z,13.50
2022-10-08T20:49:19.898Z,13.20
2022-10-08T20:51:47.436Z,12.90
2022-10-08T20:54:17.354Z,12.80
2022-10-08T20:56:45.265Z,12.70
2022-10-08T20:59:16.228Z,12.70
